createdAt,value
2019-04-03T00:00:49.194Z,41.22
2019-04-03T00:01:41.233Z,41.44
2019-04-03T00:02:41.276Z,40.23
2019-04-03T00:03:41.203Z,41.14
2019-04-03T00:04:41.190Z,41.31
2019-04-03T00:05:41.219Z,41.44
2019-04-03T00:06:41.756Z,40.83
2019-04-03T00:07:48.987Z,40.81
2019-04-03T00:08:41.291Z,41.31
2019-04-03T00:09:41.224Z,40.92
2019-04-03T00:10:41.132Z,41.41
2019-04-03T00:11:41.663Z,41.31
2019-04-03T00:12:41.339Z,41.33
2019-04-03T00:13:42.240Z,41.41
2019-04-03T00:14:42.937Z,41.03
2019-04-03T00:15:49.123Z,40.62
2019-04-03T00:16:41.129Z,41.41
2019-04-03T00:17:41.101Z,40.94
2019-04-03T00:18:41.120Z,40.83
2019-04-03T00:19:41.224Z,40.94
2019-04-03T00:20:41.050Z,40.94
2019-04-03T00:21:41.134Z,40.81
2019-04-03T00:22:40.994Z,40.83
2019-04-03T00:23:41.039Z,40.83
2019-04-03T00:24:41.326Z,41.44
2019-04-03T00:25:41.077Z,40.83
2019-04-03T00:26:49.058Z,40.83
2019-04-03T00:27:41.536Z,41.14
2019-04-03T00:28:41.126Z,40.94
2019-04-03T00:29:40.914Z,40.92
2019-04-03T00:30:41.443Z,40.83
2019-04-03T00:31:40.939Z,41.44
2019-04-03T00:32:40.923Z,41.33
2019-04-03T00:33:40.932Z,40.81
2019-04-03T00:34:41.010Z,40.83
2019-04-03T00:35:40.901Z,41.03
2019-04-03T00:36:41.476Z,40.94
2019-04-03T00:37:40.849Z,40.81
2019-04-03T00:38:41.132Z,41.41
2019-04-03T00:39:40.836Z,40.83
2019-04-03T00:40:40.942Z,40.94
2019-04-03T00:41:40.846Z,40.94
2019-04-03T00:42:41.250Z,41.33
2019-04-03T00:43:40.795Z,40.83
2019-04-03T00:44:40.920Z,40.94
2019-04-03T00:45:40.769Z,41.24
2019-04-03T00:46:40.778Z,41.44
2019-04-03T00:47:40.751Z,41.44
2019-04-03T00:48:41.412Z,41.33
2019-04-03T00:49:40.696Z,41.41
2019-04-03T00:50:40.758Z,41.33
2019-04-03T00:51:40.727Z,41.41
2019-04-03T00:52:40.918Z,41.24
2019-04-03T00:53:40.756Z,41.41
2019-04-03T00:54:41.422Z,41.24
2019-04-03T00:55:40.681Z,40.83
2019-04-03T00:56:40.758Z,41.03
2019-04-03T00:57:40.625Z,40.83
2019-04-03T00:58:40.832Z,41.41
2019-04-03T00:59:40.632Z,40.83
2019-04-03T01:00:41.198Z,40.94
2019-04-03T01:01:40.569Z,41.11
2019-04-03T01:02:40.638Z,40.94
2019-04-03T01:03:40.539Z,41.14
2019-04-03T01:04:40.567Z,41.33
2019-04-03T01:05:40.628Z,41.33
2019-04-03T01:06:47.664Z,40.62
2019-04-03T01:07:40.491Z,41.22
2019-04-03T01:08:40.553Z,40.81
2019-04-03T01:09:40.613Z,40.83
2019-04-03T01:10:40.465Z,41.03
2019-04-03T01:11:40.458Z,40.94
2019-04-03T01:12:40.588Z,40.94
2019-04-03T01:13:40.469Z,41.44
2019-04-03T01:14:40.528Z,41.44
2019-04-03T01:15:40.402Z,41.14
2019-04-03T01:16:40.465Z,40.94
2019-04-03T01:17:40.385Z,40.83
2019-04-03T01:18:40.581Z,41.44
2019-04-03T01:19:40.390Z,41.44
2019-04-03T01:20:40.497Z,41.03
2019-04-03T01:21:40.368Z,41.03
2019-04-03T01:22:40.499Z,41.03
2019-04-03T01:23:40.324Z,41.44
2019-04-03T01:24:40.491Z,41.44
2019-04-03T01:25:40.301Z,40.83
2019-04-03T01:26:41.139Z,40.83
2019-04-03T01:27:41.633Z,41.31
2019-04-03T01:28:41.835Z,41.33
2019-04-03T01:29:42.347Z,41.44
2019-04-03T01:30:40.389Z,41.44
2019-04-03T01:31:40.371Z,41.33
2019-04-03T01:32:40.355Z,41.44
2019-04-03T01:33:40.405Z,41.33
2019-04-03T01:34:40.442Z,41.33
2019-04-03T01:35:40.214Z,41.44
2019-04-03T01:36:40.416Z,41.24
2019-04-03T01:37:40.169Z,41.44
2019-04-03T01:38:40.196Z,41.44
2019-04-03T01:39:40.179Z,40.94
2019-04-03T01:40:40.131Z,40.94
2019-04-03T01:41:40.302Z,41.33
2019-04-03T01:42:40.213Z,40.94
2019-04-03T01:43:40.103Z,41.33
2019-04-03T01:44:40.153Z,41.03
2019-04-03T01:45:40.229Z,41.14
2019-04-03T01:46:40.102Z,41.33
2019-04-03T01:47:40.071Z,41.33
2019-04-03T01:48:40.368Z,40.94
2019-04-03T01:49:40.061Z,41.14
2019-04-03T01:50:40.034Z,41.14
2019-04-03T01:51:40.074Z,41.24
2019-04-03T01:52:40.064Z,41.44
2019-04-03T01:53:40.039Z,41.03
2019-04-03T01:54:40.215Z,41.24
2019-04-03T01:55:39.969Z,41.24
2019-04-03T01:56:40.097Z,41.03
2019-04-03T01:57:40.309Z,40.94
2019-04-03T01:58:40.103Z,41.03
2019-04-03T01:59:39.972Z,41.03
2019-04-03T02:00:40.061Z,41.33
2019-04-03T02:01:39.918Z,41.14
2019-04-03T02:02:39.964Z,41.33
2019-04-03T02:03:41.701Z,41.44
2019-04-03T02:04:42.026Z,41.33
2019-04-03T02:05:39.902Z,41.33
2019-04-03T02:06:40.181Z,41.24
2019-04-03T02:07:39.888Z,41.03
2019-04-03T02:08:39.825Z,41.33
2019-04-03T02:09:40.081Z,41.14
2019-04-03T02:10:39.858Z,41.03
2019-04-03T02:11:39.791Z,41.03
2019-04-03T02:12:40.226Z,41.03
2019-04-03T02:13:39.800Z,40.94
2019-04-03T02:14:39.969Z,41.33
2019-04-03T02:15:47.673Z,41.33
2019-04-03T02:16:39.760Z,41.03
2019-04-03T02:17:39.728Z,41.44
2019-04-03T02:18:40.329Z,41.33
2019-04-03T02:19:39.694Z,41.03
2019-04-03T02:20:39.741Z,41.44
2019-04-03T02:21:39.821Z,40.94
2019-04-03T02:22:39.768Z,41.24
2019-04-03T02:23:39.666Z,41.03
2019-04-03T02:24:39.764Z,41.24
2019-04-03T02:25:39.736Z,41.24
2019-04-03T02:26:39.651Z,41.24
2019-04-03T02:27:39.659Z,41.44
2019-04-03T02:28:39.759Z,41.53
2019-04-03T02:29:40.381Z,40.94
2019-04-03T02:30:39.964Z,41.24
2019-04-03T02:31:39.741Z,41.33
2019-04-03T02:32:39.630Z,41.03
2019-04-03T02:33:39.553Z,41.44
2019-04-03T02:34:39.722Z,41.53
2019-04-03T02:35:40.490Z,41.03
2019-04-03T02:36:43.311Z,41.14
2019-04-03T02:37:40.985Z,41.24
2019-04-03T02:38:39.606Z,41.44
2019-04-03T02:39:39.490Z,41.44
2019-04-03T02:40:39.559Z,41.33
2019-04-03T02:41:39.794Z,41.44
2019-04-03T02:42:41.548Z,41.33
2019-04-03T02:43:39.435Z,41.53
2019-04-03T02:44:39.495Z,41.33
2019-04-03T02:45:39.892Z,41.03
2019-04-03T02:46:39.401Z,41.33
2019-04-03T02:47:39.557Z,41.33
2019-04-03T02:48:39.812Z,41.14
2019-04-03T02:49:41.516Z,41.14
2019-04-03T02:50:39.400Z,41.24
2019-04-03T02:51:39.412Z,40.94
2019-04-03T02:52:39.396Z,41.14
2019-04-03T02:53:39.391Z,41.33
2019-04-03T02:54:39.455Z,41.03
2019-04-03T02:55:40.627Z,41.33
2019-04-03T02:56:39.404Z,41.44
2019-04-03T02:57:39.331Z,40.94
2019-04-03T02:58:39.332Z,41.44
2019-04-03T02:59:39.320Z,41.44
2019-04-03T03:00:39.315Z,40.94
2019-04-03T03:01:40.434Z,41.14
2019-04-03T03:02:39.299Z,41.44
2019-04-03T03:03:39.263Z,41.44
2019-04-03T03:04:39.310Z,41.33
2019-04-03T03:05:39.214Z,41.44
2019-04-03T03:06:39.292Z,41.03
2019-04-03T03:07:39.173Z,41.33
2019-04-03T03:08:41.680Z,41.03
2019-04-03T03:09:39.158Z,41.24
2019-04-03T03:10:39.246Z,41.03
2019-04-03T03:11:39.427Z,41.24
2019-04-03T03:12:39.801Z,41.44
2019-04-03T03:13:39.108Z,41.03
2019-04-03T03:14:40.354Z,41.03
2019-04-03T03:15:41.136Z,41.53
2019-04-03T03:16:39.082Z,41.44
2019-04-03T03:17:39.213Z,41.14
2019-04-03T03:18:39.137Z,41.44
2019-04-03T03:19:39.193Z,41.44
2019-04-03T03:20:40.765Z,41.53
2019-04-03T03:21:39.460Z,41.53
2019-04-03T03:22:39.067Z,40.94
2019-04-03T03:23:46.317Z,41.53
2019-04-03T03:24:39.120Z,41.14
2019-04-03T03:25:38.993Z,41.53
2019-04-03T03:26:39.015Z,41.44
2019-04-03T03:27:47.486Z,41.24
2019-04-03T03:28:38.939Z,41.53
2019-04-03T03:29:39.365Z,40.94
2019-04-03T03:30:46.758Z,40.94
2019-04-03T03:32:05.571Z,41.33
2019-04-03T03:32:40.620Z,41.24
2019-04-03T03:33:41.174Z,41.14
2019-04-03T03:34:54.867Z,41.14
2019-04-03T03:35:45.236Z,41.46
2019-04-03T03:36:40.363Z,41.44
2019-04-03T03:37:38.909Z,41.24
2019-04-03T03:38:40.163Z,41.33
2019-04-03T03:39:42.695Z,41.24
2019-04-03T03:40:38.844Z,40.83
2019-04-03T03:41:38.885Z,40.83
2019-04-03T03:42:39.059Z,40.83
2019-04-03T03:43:46.413Z,40.94
2019-04-03T03:44:43.194Z,41.25
2019-04-03T03:45:39.825Z,41.05
2019-04-03T03:46:38.782Z,41.05
2019-04-03T03:47:38.920Z,41.63
2019-04-03T03:48:42.431Z,41.44
2019-04-03T03:49:38.897Z,40.83
2019-04-03T03:50:39.099Z,40.94
2019-04-03T03:51:38.766Z,40.86
2019-04-03T03:52:39.225Z,41.36
2019-04-03T03:53:38.903Z,41.53
2019-04-03T03:54:38.850Z,41.53
2019-04-03T03:55:38.809Z,40.94
2019-04-03T03:56:38.625Z,41.44
2019-04-03T03:57:40.160Z,41.36
2019-04-03T03:58:38.880Z,41.44
2019-04-03T03:59:49.474Z,41.24
2019-04-03T04:01:48.707Z,41.03
2019-04-03T04:02:48.578Z,40.94
2019-04-03T04:03:48.319Z,41.46
2019-04-03T04:04:48.872Z,41.03
2019-04-03T04:05:48.561Z,41.53
2019-04-03T04:06:48.372Z,41.03
2019-04-03T04:07:48.849Z,41.36
2019-04-03T04:08:48.218Z,41.24
2019-04-03T04:09:55.704Z,41.24
2019-04-03T04:10:48.216Z,41.53
2019-04-03T04:11:48.221Z,41.44
2019-04-03T04:12:48.242Z,41.03
2019-04-03T04:13:49.697Z,40.94
2019-04-03T04:14:48.161Z,41.24
2019-04-03T04:15:48.325Z,41.25
2019-04-03T04:16:48.133Z,41.33
2019-04-03T04:17:56.251Z,41.33
2019-04-03T04:18:48.275Z,41.44
2019-04-03T04:19:48.290Z,41.25
2019-04-03T04:20:48.119Z,41.03
2019-04-03T04:21:48.304Z,41.03
2019-04-03T04:22:50.457Z,41.03
2019-04-03T04:23:48.082Z,41.74
2019-04-03T04:24:48.285Z,41.44
2019-04-03T04:25:48.067Z,41.36
2019-04-03T04:26:49.880Z,41.53
2019-04-03T04:27:48.141Z,41.24
2019-04-03T04:28:48.014Z,41.53
2019-04-03T04:29:47.995Z,41.44
2019-04-03T04:30:48.179Z,41.16
2019-04-03T04:31:48.010Z,41.44
2019-04-03T04:32:48.026Z,41.36
2019-04-03T04:33:48.401Z,40.86
2019-04-03T04:34:50.041Z,41.03
2019-04-03T04:35:47.927Z,41.03
2019-04-03T04:36:48.055Z,41.16
2019-04-03T04:37:47.904Z,40.95
2019-04-03T04:38:48.058Z,41.53
2019-04-03T04:39:48.017Z,41.53
2019-04-03T04:40:47.980Z,41.03
2019-04-03T04:41:47.978Z,41.14
2019-04-03T04:42:47.957Z,41.44
2019-04-03T04:43:47.841Z,41.24
2019-04-03T04:44:47.860Z,40.73
2019-04-03T04:45:48.326Z,41.14
2019-04-03T04:46:47.807Z,41.74
2019-04-03T04:47:48.009Z,41.14
2019-04-03T04:48:47.901Z,41.14
2019-04-03T04:49:55.735Z,41.03
2019-04-03T04:50:47.825Z,41.55
2019-04-03T04:51:47.885Z,41.46
2019-04-03T04:52:47.838Z,41.14
2019-04-03T04:53:47.799Z,41.03
2019-04-03T04:54:47.761Z,41.24
2019-04-03T04:55:55.396Z,41.44
2019-04-03T04:56:47.698Z,40.95
2019-04-03T04:57:48.257Z,41.53
2019-04-03T04:58:47.681Z,41.53
2019-04-03T04:59:47.840Z,41.16
2019-04-03T05:00:47.911Z,41.66
2019-04-03T05:01:49.128Z,41.63
2019-04-03T05:02:48.878Z,41.24
2019-04-03T05:03:47.672Z,41.24
2019-04-03T05:04:47.746Z,41.33
2019-04-03T05:05:47.598Z,41.14
2019-04-03T05:06:47.634Z,41.55
2019-04-03T05:07:47.714Z,41.33
2019-04-03T05:08:47.570Z,40.95
2019-04-03T05:09:47.768Z,40.86
2019-04-03T05:10:49.087Z,41.14
2019-04-03T05:11:47.562Z,41.16
2019-04-03T05:12:47.516Z,41.14
2019-04-03T05:13:47.566Z,41.03
2019-04-03T05:14:48.925Z,41.46
2019-04-03T05:15:47.617Z,41.14
2019-04-03T05:16:47.514Z,41.05
2019-04-03T05:17:50.393Z,41.24
2019-04-03T05:18:47.546Z,41.03
2019-04-03T05:19:48.934Z,40.83
2019-04-03T05:20:48.826Z,41.14
2019-04-03T05:21:47.868Z,41.14
2019-04-03T05:22:47.464Z,41.25
2019-04-03T05:23:47.466Z,41.44
2019-04-03T05:24:47.383Z,41.53
2019-04-03T05:25:47.548Z,40.94
2019-04-03T05:26:47.539Z,41.24
2019-04-03T05:27:47.632Z,41.14
2019-04-03T05:28:55.740Z,41.03
2019-04-03T05:29:48.613Z,41.33
2019-04-03T05:30:47.463Z,41.44
2019-04-03T05:31:47.341Z,41.03
2019-04-03T05:32:48.272Z,41.16
2019-04-03T05:33:47.360Z,41.55
2019-04-03T05:34:47.360Z,41.24
2019-04-03T05:35:47.320Z,41.46
2019-04-03T05:36:48.556Z,41.24
2019-04-03T05:37:48.981Z,41.44
2019-04-03T05:38:47.707Z,41.33
2019-04-03T05:39:48.591Z,41.03
2019-04-03T05:40:47.258Z,41.46
2019-04-03T05:41:47.212Z,41.05
2019-04-03T05:42:47.512Z,41.33
2019-04-03T05:43:47.211Z,41.03
2019-04-03T05:44:47.501Z,41.53
2019-04-03T05:45:47.560Z,41.63
2019-04-03T05:46:47.510Z,41.44
2019-04-03T05:47:47.301Z,41.44
2019-04-03T05:48:49.020Z,41.14
2019-04-03T05:49:47.548Z,41.44
2019-04-03T05:50:47.555Z,41.14
2019-04-03T05:51:48.033Z,41.24
2019-04-03T05:52:47.193Z,40.14
2019-04-03T05:53:48.383Z,39.54
2019-04-03T05:54:55.513Z,38.74
2019-04-03T05:55:47.163Z,38.24
2019-04-03T05:56:47.652Z,37.74
2019-04-03T05:57:48.536Z,38.34
2019-04-03T05:58:55.496Z,38.14
2019-04-03T05:59:59.168Z,37.56
2019-04-03T06:00:48.103Z,36.56
2019-04-03T06:01:47.274Z,36.16
2019-04-03T06:02:47.043Z,36.94
2019-04-03T06:03:48.262Z,36.84
2019-04-03T06:04:47.041Z,36.46
2019-04-03T06:05:47.741Z,36.64
2019-04-03T06:06:47.895Z,36.24
2019-04-03T06:07:49.363Z,37.34
2019-04-03T06:08:47.045Z,36.54
2019-04-03T06:09:47.190Z,36.24
2019-04-03T06:10:47.014Z,36.15
2019-04-03T06:11:47.044Z,35.85
2019-04-03T06:12:47.000Z,36.26
2019-04-03T06:13:48.287Z,36.04
2019-04-03T06:14:49.606Z,36.26
2019-04-03T06:15:46.922Z,36.04
2019-04-03T06:16:46.853Z,34.96
2019-04-03T06:17:49.964Z,35.94
2019-04-03T06:18:47.787Z,35.35
2019-04-03T06:19:46.823Z,36.26
2019-04-03T06:20:47.027Z,36.06
2019-04-03T06:21:50.591Z,35.05
2019-04-03T06:23:56.271Z,33.75
2019-04-03T06:24:57.125Z,34.55
2019-04-03T06:25:56.153Z,34.25
2019-04-03T06:26:57.047Z,34.26
2019-04-03T06:27:56.193Z,33.66
2019-04-03T06:28:56.005Z,34.26
2019-04-03T06:29:55.991Z,34.26
2019-04-03T06:30:56.993Z,33.75
2019-04-03T06:31:57.878Z,33.84
2019-04-03T06:32:56.455Z,33.76
2019-04-03T06:33:55.989Z,33.26
2019-04-03T06:34:56.259Z,33.06
2019-04-03T06:35:56.342Z,33.45
2019-04-03T06:36:56.135Z,33.56
2019-04-03T06:37:56.114Z,33.04
2019-04-03T06:38:57.429Z,33.76
2019-04-03T06:39:56.153Z,33.25
2019-04-03T06:40:56.694Z,33.04
2019-04-03T06:43:05.335Z,33.54
2019-04-03T06:44:12.438Z,32.95
2019-04-03T06:45:05.531Z,33.16
2019-04-03T06:46:07.053Z,33.84
2019-04-03T06:51:04.680Z,32.45
2019-04-03T06:52:12.531Z,33.06
2019-04-03T06:53:04.554Z,32.17
2019-04-03T06:54:07.157Z,31.85
2019-04-03T06:55:04.822Z,33.04
2019-04-03T06:56:04.524Z,33.56
2019-04-03T06:57:05.024Z,33.25
2019-04-03T06:58:04.446Z,33.75
2019-04-03T06:59:04.586Z,33.15
2019-04-03T07:00:04.561Z,33.04
2019-04-03T07:01:04.429Z,33.04
2019-04-03T07:02:04.624Z,32.35
2019-04-03T07:03:05.623Z,32.26
2019-04-03T07:06:57.219Z,32.85
2019-04-03T07:11:45.428Z,32.95
2019-04-03T07:12:53.561Z,32.95
2019-04-03T07:13:54.325Z,32.95
2019-04-03T07:14:52.646Z,32.95
2019-04-03T07:15:55.762Z,32.05
2019-04-03T07:16:52.735Z,32.05
2019-04-03T07:17:45.173Z,32.75
2019-04-03T07:18:45.098Z,32.65
2019-04-03T07:19:45.245Z,32.15
2019-04-03T07:20:45.179Z,31.65
2019-04-03T07:21:44.920Z,31.75
2019-04-03T07:22:45.158Z,32.05
2019-04-03T07:23:44.992Z,31.25
2019-04-03T07:24:44.938Z,31.55
2019-04-03T07:25:44.918Z,31.95
2019-04-03T07:26:45.448Z,31.85
2019-04-03T07:27:45.335Z,32.15
2019-04-03T07:28:45.302Z,32.15
2019-04-03T07:29:45.053Z,31.25
2019-04-03T07:30:44.834Z,32.15
2019-04-03T07:31:44.925Z,30.95
2019-04-03T07:32:45.035Z,31.05
2019-04-03T07:33:45.192Z,31.35
2019-04-03T07:34:45.060Z,31.15
2019-04-03T07:35:44.984Z,31.15
2019-04-03T07:36:45.539Z,31.35
2019-04-03T07:37:44.876Z,31.85
2019-04-03T07:38:44.865Z,31.35
2019-04-03T07:39:44.963Z,31.35
2019-04-03T07:43:33.941Z,31.34
2019-04-03T07:44:33.736Z,31.35
2019-04-03T07:45:34.904Z,32.05
2019-04-03T07:49:00.273Z,32.25
2019-04-03T07:49:59.324Z,31.75
2019-04-03T07:50:59.228Z,32.15
2019-04-03T07:51:59.315Z,33.35
2019-04-03T07:52:59.138Z,32.15
2019-04-03T07:53:59.159Z,31.75
2019-04-03T07:54:59.177Z,31.55
2019-04-03T07:55:59.158Z,32.35
2019-04-03T07:56:59.232Z,32.25
2019-04-03T07:58:00.373Z,31.35
2019-04-03T07:59:02.716Z,31.05
2019-04-03T07:59:59.204Z,31.05
2019-04-03T08:00:59.153Z,31.25
2019-04-03T08:01:59.919Z,31.35
2019-04-03T08:02:59.228Z,31.25
2019-04-03T08:03:59.103Z,31.45
2019-04-03T08:05:00.875Z,32.05
2019-04-03T08:05:59.218Z,31.65
2019-04-03T08:07:00.157Z,32.05
2019-04-03T08:08:01.510Z,32.05
2019-04-03T08:09:07.264Z,31.85
2019-04-03T08:10:00.151Z,31.65
2019-04-03T08:10:59.736Z,31.85
2019-04-03T08:11:59.847Z,31.55
2019-04-03T08:12:59.899Z,31.73
2019-04-03T08:13:59.084Z,32.05
2019-04-03T08:14:59.227Z,32.05
2019-04-03T08:15:59.526Z,31.35
2019-04-03T08:16:59.048Z,31.35
2019-04-03T08:17:59.425Z,31.55
2019-04-03T08:18:59.478Z,32.95
2019-04-03T08:19:59.252Z,32.35
2019-04-03T08:21:01.228Z,32.85
2019-04-03T08:22:01.909Z,32.95
2019-04-03T08:23:00.144Z,33.04
2019-04-03T08:23:58.858Z,32.65
2019-04-03T08:24:59.228Z,31.55
2019-04-03T08:25:58.945Z,32.25
2019-04-03T08:26:59.005Z,31.25
2019-04-03T08:27:58.845Z,32.05
2019-04-03T08:29:01.039Z,31.15
2019-04-03T08:29:59.042Z,31.65
2019-04-03T08:30:59.494Z,31.75
2019-04-03T08:31:59.093Z,31.75
2019-04-03T08:32:58.861Z,32.03
2019-04-03T08:33:59.567Z,32.05
2019-04-03T08:34:58.832Z,31.25
2019-04-03T08:35:59.263Z,31.55
2019-04-03T08:37:01.569Z,32.03
2019-04-03T08:37:58.782Z,31.75
2019-04-03T08:38:58.908Z,32.05
2019-04-03T08:39:59.037Z,31.45
2019-04-03T08:40:58.764Z,31.85
2019-04-03T08:41:59.246Z,31.35
2019-04-03T08:43:00.369Z,31.65
2019-04-03T08:43:58.653Z,31.85
2019-04-03T08:44:58.598Z,31.55
2019-04-03T08:45:58.613Z,31.55
2019-04-03T08:46:58.802Z,31.43
2019-04-03T08:47:58.566Z,31.75
2019-04-03T08:48:58.686Z,31.15
2019-04-03T08:50:01.355Z,32.03
2019-04-03T08:51:02.199Z,32.05
2019-04-03T08:51:58.485Z,31.75
2019-04-03T08:52:59.189Z,31.65
2019-04-03T08:53:58.609Z,31.65
2019-04-03T08:54:58.560Z,31.63
2019-04-03T08:55:58.455Z,31.75
2019-04-03T08:56:58.447Z,32.85
2019-04-03T08:57:58.579Z,32.63
2019-04-03T08:58:58.698Z,31.65
2019-04-03T09:00:00.710Z,31.65
2019-04-03T09:00:58.465Z,32.45
2019-04-03T09:01:58.442Z,32.65
2019-04-03T09:02:58.387Z,33.33
2019-04-03T09:03:58.409Z,32.63
2019-04-03T09:04:58.379Z,33.15
2019-04-03T09:05:58.592Z,32.95
2019-04-03T09:06:58.714Z,32.75
2019-04-03T09:07:58.671Z,31.63
2019-04-03T09:08:58.723Z,32.23
2019-04-03T09:10:00.891Z,32.93
2019-04-03T09:10:58.473Z,32.93
2019-04-03T09:11:58.348Z,32.35
2019-04-03T09:12:58.375Z,32.63
2019-04-03T09:13:58.416Z,32.03
2019-04-03T09:14:58.314Z,31.84
2019-04-03T09:15:59.347Z,32.73
2019-04-03T09:16:58.262Z,33.15
2019-04-03T09:17:58.397Z,32.93
2019-04-03T09:18:58.241Z,32.55
2019-04-03T09:19:58.344Z,31.85
2019-04-03T09:20:58.160Z,32.75
2019-04-03T09:21:58.705Z,32.15
2019-04-03T09:22:59.190Z,31.65
2019-04-03T09:23:58.417Z,31.55
2019-04-03T09:25:00.609Z,32.03
2019-04-03T09:25:58.404Z,31.75
2019-04-03T09:26:58.133Z,31.54
2019-04-03T09:27:58.303Z,31.24
2019-04-03T09:28:58.211Z,31.84
2019-04-03T09:29:59.447Z,32.15
2019-04-03T09:30:58.830Z,31.55
2019-04-03T09:31:58.171Z,32.05
2019-04-03T09:32:59.910Z,32.53
2019-04-03T09:33:58.753Z,32.15
2019-04-03T09:35:00.542Z,32.73
2019-04-03T09:36:09.270Z,31.63
2019-04-03T09:38:09.488Z,32.43
2019-04-03T09:39:07.418Z,32.45
2019-04-03T09:44:38.760Z,33.23
2019-04-03T09:46:36.715Z,32.53
2019-04-03T09:48:50.656Z,32.63
2019-04-03T09:50:58.706Z,32.43
2019-04-03T09:53:46.926Z,32.43
2019-04-03T09:54:55.372Z,32.23
2019-04-03T09:55:55.784Z,33.03
2019-04-03T09:56:57.838Z,32.73
2019-04-03T09:59:07.300Z,32.53
2019-04-03T10:01:34.516Z,31.84
2019-04-03T10:02:34.256Z,32.63
2019-04-03T10:03:33.624Z,32.43
2019-04-03T10:04:35.402Z,32.23
2019-04-03T10:06:42.842Z,31.84
2019-04-03T10:07:42.746Z,32.63
2019-04-03T10:08:42.665Z,32.33
2019-04-03T10:09:44.008Z,33.03
2019-04-03T10:10:42.674Z,33.23
2019-04-03T10:11:42.667Z,33.23
2019-04-03T10:12:47.344Z,33.23
2019-04-03T10:13:43.954Z,33.03
2019-04-03T10:15:58.546Z,33.03
2019-04-03T10:18:15.547Z,33.13
2019-04-03T10:19:19.130Z,33.93
2019-04-03T10:20:17.278Z,32.73
2019-04-03T10:21:15.760Z,33.33
2019-04-03T10:22:15.443Z,33.23
2019-04-03T10:23:15.668Z,33.63
2019-04-03T10:24:15.543Z,33.33
2019-04-03T10:25:16.455Z,33.13
2019-04-03T10:26:15.797Z,33.93
2019-04-03T10:27:15.857Z,33.83
2019-04-03T10:28:15.674Z,33.53
2019-04-03T10:29:15.586Z,33.63
2019-04-03T10:30:15.403Z,32.93
2019-04-03T10:31:16.109Z,33.23
2019-04-03T10:32:15.942Z,33.51
2019-04-03T10:33:15.514Z,33.83
2019-04-03T10:34:15.590Z,34.13
2019-04-03T10:35:15.427Z,33.91
2019-04-03T10:37:24.761Z,34.01
2019-04-03T10:38:25.288Z,34.21
2019-04-03T10:39:25.557Z,34.31
2019-04-03T10:40:26.396Z,34.01
2019-04-03T10:41:27.692Z,34.11
2019-04-03T10:42:24.830Z,33.61
2019-04-03T10:43:24.717Z,33.72
2019-04-03T10:44:24.596Z,33.12
2019-04-03T10:45:24.836Z,33.61
2019-04-03T10:46:24.504Z,33.42
2019-04-03T10:47:30.187Z,33.51
2019-04-03T10:48:28.205Z,33.61
2019-04-03T10:49:24.475Z,33.91
2019-04-03T10:50:25.230Z,34.01
2019-04-03T10:51:24.434Z,33.91
2019-04-03T10:55:18.774Z,33.72
2019-04-03T10:56:21.343Z,34.01
2019-04-03T10:58:55.213Z,34.21
2019-04-03T10:59:55.021Z,33.81
2019-04-03T11:00:54.712Z,34.21
2019-04-03T11:01:55.272Z,33.91
2019-04-03T11:02:53.427Z,33.81
2019-04-03T11:03:52.420Z,33.81
2019-04-03T11:04:52.532Z,33.81
2019-04-03T11:05:52.814Z,33.61
2019-04-03T11:06:52.502Z,32.62
2019-04-03T11:07:52.431Z,32.92
2019-04-03T11:08:52.517Z,32.92
2019-04-03T11:09:53.224Z,31.92
2019-04-03T11:10:53.186Z,32.82
2019-04-03T11:11:53.202Z,31.82
2019-04-03T11:12:52.601Z,33.72
2019-04-03T11:13:53.495Z,32.92
2019-04-03T11:14:52.605Z,33.12
2019-04-03T11:15:52.493Z,33.51
2019-04-03T11:16:52.619Z,33.72
2019-04-03T11:17:54.875Z,33.42
2019-04-03T11:18:59.932Z,34.11
2019-04-03T11:19:53.241Z,33.51
2019-04-03T11:20:52.313Z,33.12
2019-04-03T11:21:53.196Z,32.71
2019-04-03T11:23:04.433Z,33.30
2019-04-03T11:23:53.891Z,33.12
2019-04-03T11:24:52.263Z,33.91
2019-04-03T11:25:52.588Z,33.22
2019-04-03T11:26:52.673Z,33.51
2019-04-03T11:27:52.175Z,34.11
2019-04-03T11:28:52.471Z,33.72
2019-04-03T11:29:52.716Z,33.61
2019-04-03T11:30:53.010Z,33.31
2019-04-03T11:31:53.364Z,33.42
2019-04-03T11:32:53.852Z,33.51
2019-04-03T11:33:52.398Z,33.42
2019-04-03T11:34:53.960Z,33.61
2019-04-03T11:35:54.019Z,32.71
2019-04-03T11:36:52.198Z,33.01
2019-04-03T11:37:52.036Z,33.51
2019-04-03T11:38:52.334Z,33.80
2019-04-03T11:40:02.407Z,33.20
2019-04-03T11:40:53.012Z,33.40
2019-04-03T11:41:54.536Z,33.30
2019-04-03T11:42:52.360Z,33.70
2019-04-03T11:43:52.086Z,33.81
2019-04-03T11:44:52.097Z,33.30
2019-04-03T11:47:31.757Z,33.00
2019-04-03T11:48:39.010Z,33.80
2019-04-03T11:49:29.430Z,33.50
2019-04-03T11:50:30.396Z,33.60
2019-04-03T11:55:14.895Z,33.80
2019-04-03T11:58:39.162Z,33.60
2019-04-03T12:05:38.356Z,33.40
2019-04-03T12:15:37.250Z,33.40
2019-04-03T12:16:09.538Z,33.20
2019-04-03T12:18:25.245Z,33.00
2019-04-03T12:19:36.838Z,33.50
2019-04-03T12:25:03.408Z,33.80
2019-04-03T12:27:50.181Z,34.09
2019-04-03T12:28:30.105Z,33.40
2019-04-03T12:30:57.228Z,33.60
2019-04-03T12:34:43.894Z,33.50
2019-04-03T12:37:26.124Z,33.60
2019-04-03T12:38:16.042Z,33.70
2019-04-03T12:39:15.405Z,33.20
2019-04-03T12:40:17.884Z,33.70
2019-04-03T12:41:14.556Z,33.00
2019-04-03T12:42:16.630Z,33.80
2019-04-03T12:43:14.492Z,33.80
2019-04-03T12:44:15.600Z,33.60
2019-04-03T12:45:17.481Z,33.40
2019-04-03T12:46:14.708Z,33.10
2019-04-03T12:47:15.059Z,33.70
2019-04-03T12:48:15.401Z,33.90
2019-04-03T12:49:31.642Z,33.48
2019-04-03T12:51:23.623Z,33.80
2019-04-03T12:52:23.583Z,34.00
2019-04-03T12:53:23.528Z,34.20
2019-04-03T12:54:23.611Z,34.00
2019-04-03T12:55:25.971Z,34.20
2019-04-03T12:56:24.872Z,33.40
2019-04-03T12:57:23.572Z,33.90
2019-04-03T12:58:24.116Z,34.00
2019-04-03T12:59:23.843Z,34.09
2019-04-03T13:00:23.628Z,34.00
2019-04-03T13:01:24.039Z,34.20
2019-04-03T13:02:23.619Z,33.90
2019-04-03T13:03:25.749Z,33.80
2019-04-03T13:04:25.586Z,33.70
2019-04-03T13:05:24.315Z,33.98
2019-04-03T13:06:23.502Z,34.00
2019-04-03T13:07:23.670Z,34.30
2019-04-03T13:08:23.415Z,33.40
2019-04-03T13:09:23.704Z,33.48
2019-04-03T13:10:23.506Z,33.78
2019-04-03T13:11:24.491Z,34.00
2019-04-03T13:12:26.872Z,33.58
2019-04-03T13:13:25.348Z,34.20
2019-04-03T13:14:26.460Z,34.20
2019-04-03T13:15:23.656Z,34.30
2019-04-03T13:16:23.935Z,33.98
2019-04-03T13:17:23.533Z,34.00
2019-04-03T13:18:23.246Z,33.90
2019-04-03T13:19:24.477Z,33.98
2019-04-03T13:20:23.421Z,34.18
2019-04-03T13:21:25.203Z,34.18
2019-04-03T13:22:23.424Z,33.70
2019-04-03T13:23:23.301Z,33.60
2019-04-03T13:24:23.542Z,33.40
2019-04-03T13:25:38.909Z,34.00
2019-04-03T13:29:27.627Z,33.88
2019-04-03T13:31:15.047Z,33.98
2019-04-03T13:32:17.821Z,34.28
2019-04-03T13:33:16.365Z,33.80
2019-04-03T13:34:14.373Z,33.90
2019-04-03T13:35:15.572Z,33.58
2019-04-03T13:36:13.709Z,34.18
2019-04-03T13:37:13.607Z,33.58
2019-04-03T13:38:13.809Z,34.28
2019-04-03T13:39:13.400Z,33.80
2019-04-03T13:40:13.566Z,34.09
2019-04-03T13:41:13.450Z,36.79
2019-04-03T13:42:14.657Z,37.59
2019-04-03T13:43:13.468Z,39.28
2019-04-03T13:44:13.524Z,41.38
2019-04-03T13:45:13.669Z,41.77
2019-04-03T13:46:13.595Z,42.27
2019-04-03T13:47:13.776Z,43.67
2019-04-03T13:48:13.898Z,45.09
2019-04-03T13:49:16.923Z,46.66
2019-04-03T13:50:13.926Z,47.16
2019-04-03T13:52:48.825Z,46.86
2019-04-03T13:53:44.782Z,48.16
2019-04-03T13:54:45.465Z,47.16
2019-04-03T13:55:44.498Z,47.75
2019-04-03T13:56:44.561Z,46.46
2019-04-03T13:57:44.892Z,46.46
2019-04-03T13:58:44.409Z,45.86
2019-04-03T13:59:44.531Z,44.17
2019-04-03T14:00:57.831Z,43.37
2019-04-03T14:01:45.390Z,41.97
2019-04-03T14:02:45.988Z,42.07
2019-04-03T14:03:44.362Z,41.17
2019-04-03T14:04:44.544Z,40.18
2019-04-03T14:05:44.719Z,40.58
2019-04-03T14:06:45.174Z,41.00
2019-04-03T14:07:44.990Z,40.48
2019-04-03T14:08:45.243Z,40.08
2019-04-03T14:09:44.377Z,40.68
2019-04-03T14:10:44.328Z,40.48
2019-04-03T14:11:44.470Z,40.68
2019-04-03T14:12:45.716Z,40.48
2019-04-03T14:13:44.824Z,40.08
2019-04-03T14:14:46.810Z,40.38
2019-04-03T14:15:44.294Z,40.58
2019-04-03T14:16:44.406Z,40.68